createdAt,value
2022-11-16T00:00:36.624Z,100291.50
2022-11-16T00:02:38.268Z,100300.09
2022-11-16T00:04:40.281Z,100292.50
2022-11-16T00:06:41.941Z,100287.09
2022-11-16T00:08:44.469Z,100289.78
2022-11-16T00:10:47.436Z,100292.91
2022-11-16T00:12:48.990Z,100289.31
2022-11-16T00:14:51.155Z,100284.88
2022-11-16T00:16:52.823Z,100285.31
2022-11-16T00:18:57.314Z,100279.09
2022-11-16T00:20:58.901Z,100287.81
2022-11-16T00:23:00.253Z,100282.91
2022-11-16T00:25:01.846Z,100285.75
2022-11-16T00:27:04.853Z,100283.78
2022-11-16T00:29:06.769Z,100248.75
2022-11-16T00:31:09.610Z,100286.03
2022-11-16T00:33:14.588Z,100281.38
2022-11-16T00:35:16.322Z,100285.84
2022-11-16T00:37:17.903Z,100277.88
2022-11-16T00:39:19.727Z,100277.50
2022-11-16T00:41:21.539Z,100283.66
2022-11-16T00:43:25.047Z,100259.09
2022-11-16T00:45:26.626Z,100284.19
2022-11-16T00:47:28.039Z,100278.88
2022-11-16T00:49:29.662Z,100277.88
2022-11-16T00:51:31.210Z,100273.34
2022-11-16T00:53:33.231Z,100267.88
2022-11-16T00:55:34.800Z,100274.19
2022-11-16T00:57:36.153Z,100280.41
2022-11-16T00:59:39.134Z,100282.97
2022-11-16T01:01:40.776Z,100279.47
2022-11-16T01:03:42.650Z,100285.56
2022-11-16T01:05:44.274Z,100286.22
2022-11-16T01:07:45.681Z,100277.38
2022-11-16T01:09:47.248Z,100281.88
2022-11-16T01:11:48.687Z,100284.19
2022-11-16T01:13:50.625Z,100281.56
2022-11-16T01:15:53.579Z,100286.59
2022-11-16T01:17:56.070Z,100278.63
2022-11-16T01:19:58.168Z,100274.31
2022-11-16T01:22:00.328Z,100284.75
2022-11-16T01:24:02.017Z,100286.34
2022-11-16T01:26:03.648Z,100284.75
2022-11-16T01:28:05.095Z,100292.97
2022-11-16T01:30:09.641Z,100289.00
2022-11-16T01:32:12.629Z,100271.44
2022-11-16T01:34:14.197Z,100289.31
2022-11-16T01:36:15.932Z,100277.81
2022-11-16T01:38:17.777Z,100252.81
2022-11-16T01:40:19.517Z,100274.31
2022-11-16T01:42:23.787Z,100262.59
2022-11-16T01:45:02.540Z,100257.72
2022-11-16T01:47:09.858Z,100244.22
2022-11-16T01:49:16.586Z,100252.44
2022-11-16T01:51:18.480Z,100252.44
2022-11-16T01:53:20.429Z,100245.56
2022-11-16T01:55:23.538Z,100257.97
2022-11-16T01:57:29.258Z,100252.69
2022-11-16T01:59:31.765Z,100222.97
2022-11-16T02:01:33.552Z,100250.13
2022-11-16T02:03:37.531Z,100245.94
2022-11-16T02:05:55.707Z,100246.06
2022-11-16T02:08:28.137Z,100242.75
2022-11-16T02:10:42.591Z,100230.94
2022-11-16T02:13:05.960Z,100235.47
2022-11-16T02:15:18.338Z,100226.59
2022-11-16T02:17:32.035Z,100223.94
2022-11-16T02:20:00.254Z,100206.75
2022-11-16T02:22:09.876Z,100210.00
2022-11-16T02:24:40.767Z,100210.06
2022-11-16T02:27:07.643Z,100196.44
2022-11-16T02:29:20.682Z,100208.34
2022-11-16T02:31:27.241Z,100199.50
2022-11-16T02:33:33.473Z,100200.81
2022-11-16T02:35:41.860Z,100198.59
2022-11-16T02:37:47.736Z,100192.38
2022-11-16T02:39:56.019Z,100201.59
2022-11-16T02:41:59.572Z,100186.00
2022-11-16T02:44:08.695Z,100177.28
2022-11-16T02:46:18.608Z,100193.56
2022-11-16T02:48:24.123Z,100197.31
2022-11-16T02:50:26.809Z,100180.06
2022-11-16T02:52:29.281Z,100185.03
2022-11-16T02:54:31.157Z,100184.84
2022-11-16T02:56:43.049Z,100184.59
2022-11-16T02:58:45.315Z,100190.28
2022-11-16T03:00:54.779Z,100188.09
2022-11-16T03:03:10.352Z,100191.03
2022-11-16T03:05:15.386Z,100184.03
2022-11-16T03:07:23.104Z,100180.13
2022-11-16T03:09:28.920Z,100184.91
2022-11-16T03:11:33.064Z,100198.28
2022-11-16T03:13:37.303Z,100197.72
2022-11-16T03:15:41.601Z,100193.88
2022-11-16T03:17:46.432Z,100202.09
2022-11-16T03:19:58.868Z,100202.22
2022-11-16T03:22:07.130Z,100195.22
2022-11-16T03:24:08.776Z,100201.72
2022-11-16T03:26:12.557Z,100197.38
2022-11-16T03:28:21.379Z,100197.19
2022-11-16T03:30:25.136Z,100181.66
2022-11-16T03:32:34.538Z,100175.44
2022-11-16T03:34:38.976Z,100171.22
2022-11-16T03:36:44.889Z,100183.78
2022-11-16T03:38:49.145Z,100183.41
2022-11-16T03:40:51.278Z,100173.84
2022-11-16T03:42:56.489Z,100187.38
2022-11-16T03:44:58.850Z,100180.00
2022-11-16T03:47:01.540Z,100178.75
2022-11-16T03:49:03.098Z,100177.69
2022-11-16T03:51:05.659Z,100168.84
2022-11-16T03:53:08.578Z,100152.34
2022-11-16T03:55:10.125Z,100153.66
2022-11-16T03:57:11.954Z,100161.91
2022-11-16T03:59:13.511Z,100159.00
2022-11-16T04:01:14.955Z,100155.75
2022-11-16T04:03:16.577Z,100155.31
2022-11-16T04:05:18.357Z,100147.28
2022-11-16T04:07:19.746Z,100159.56
2022-11-16T04:09:22.790Z,100157.28
2022-11-16T04:11:24.438Z,100157.41
2022-11-16T04:13:27.348Z,100152.72
2022-11-16T04:15:28.962Z,100151.66
2022-11-16T04:17:30.326Z,100153.13
2022-11-16T04:19:31.875Z,100144.81
2022-11-16T04:21:39.102Z,100137.03
2022-11-16T04:23:41.581Z,100140.44
2022-11-16T04:25:46.593Z,100139.00
2022-11-16T04:27:52.493Z,100143.28
2022-11-16T04:29:55.135Z,100142.84
2022-11-16T04:31:56.860Z,100154.31
2022-11-16T04:33:58.469Z,100144.69
2022-11-16T04:35:59.815Z,100145.47
2022-11-16T04:38:01.436Z,100147.19
2022-11-16T04:40:03.303Z,100148.44
2022-11-16T04:42:15.094Z,100138.47
2022-11-16T04:44:17.073Z,100141.13
2022-11-16T04:46:18.729Z,100130.56
2022-11-16T04:48:20.504Z,100143.75
2022-11-16T04:50:22.075Z,100138.34
2022-11-16T04:52:23.629Z,100148.06
2022-11-16T04:54:25.163Z,100139.41
2022-11-16T04:56:26.911Z,100130.97
2022-11-16T04:58:30.222Z,100139.00
2022-11-16T05:00:32.467Z,100139.53
2022-11-16T05:02:34.021Z,100126.44
2022-11-16T05:04:35.714Z,100125.47
2022-11-16T05:06:37.334Z,100129.75
2022-11-16T05:08:38.723Z,100127.91
2022-11-16T05:10:40.349Z,100130.31
2022-11-16T05:12:41.738Z,100122.78
2022-11-16T05:14:45.292Z,100125.44
2022-11-16T05:16:46.949Z,100123.16
2022-11-16T05:18:48.294Z,100134.53
2022-11-16T05:20:49.845Z,100133.03
2022-11-16T05:22:54.403Z,100137.84
2022-11-16T05:24:55.967Z,100134.75
2022-11-16T05:26:57.335Z,100138.34
2022-11-16T05:28:59.032Z,100131.19
2022-11-16T05:31:01.985Z,100136.13
2022-11-16T05:33:03.676Z,100141.50
2022-11-16T05:35:06.360Z,100139.72
2022-11-16T05:37:07.931Z,100145.22
2022-11-16T05:39:09.270Z,100151.31
2022-11-16T05:41:11.009Z,100156.47
2022-11-16T05:43:12.572Z,100152.47
2022-11-16T05:45:18.484Z,100155.63
2022-11-16T05:47:23.852Z,100150.25
2022-11-16T05:49:25.687Z,100158.78
2022-11-16T05:51:27.259Z,100155.06
2022-11-16T05:53:28.730Z,100156.06
2022-11-16T05:55:30.335Z,100155.19
2022-11-16T05:57:31.688Z,100156.13
2022-11-16T05:59:33.368Z,100151.03
2022-11-16T06:01:35.141Z,100161.34
2022-11-16T06:03:38.219Z,100158.34
2022-11-16T06:05:40.839Z,100163.19
2022-11-16T06:07:42.551Z,100160.78
2022-11-16T06:09:43.864Z,100169.34
2022-11-16T06:11:45.463Z,100161.19
2022-11-16T06:13:47.381Z,100164.63
2022-11-16T06:15:54.211Z,100162.44
2022-11-16T06:17:55.840Z,100162.06
2022-11-16T06:19:58.760Z,100161.94
2022-11-16T06:22:00.412Z,100162.00
2022-11-16T06:24:02.092Z,100164.97
2022-11-16T06:26:04.942Z,100155.69
2022-11-16T06:28:08.143Z,100160.91
2022-11-16T06:30:10.373Z,100164.66
2022-11-16T06:32:11.919Z,100160.44
2022-11-16T06:34:13.236Z,100169.47
2022-11-16T06:36:16.201Z,100165.72
2022-11-16T06:38:17.723Z,100164.41
2022-11-16T06:40:19.171Z,100181.78
2022-11-16T06:42:21.010Z,100168.31
2022-11-16T06:44:22.506Z,100177.59
2022-11-16T06:46:24.160Z,100179.38
2022-11-16T06:48:26.221Z,100176.19
2022-11-16T06:50:27.743Z,100177.25
2022-11-16T06:52:30.503Z,100171.72
2022-11-16T06:54:32.132Z,100175.09
2022-11-16T06:56:34.172Z,100168.84
2022-11-16T06:58:36.087Z,100173.22
2022-11-16T07:00:38.020Z,100174.16
2022-11-16T07:02:40.014Z,100179.84
2022-11-16T07:04:44.384Z,100175.56
2022-11-16T07:06:45.941Z,100177.88
2022-11-16T07:08:48.669Z,100169.41
2022-11-16T07:10:50.208Z,100177.22
2022-11-16T07:12:51.577Z,100184.44
2022-11-16T07:14:53.245Z,100173.56
2022-11-16T07:16:59.298Z,100173.56
2022-11-16T07:19:03.239Z,100170.13
2022-11-16T07:21:09.211Z,100175.25
2022-11-16T07:23:14.113Z,100172.63
2022-11-16T07:25:17.428Z,100172.28
2022-11-16T07:27:18.936Z,100164.03
2022-11-16T07:29:20.524Z,100176.78
2022-11-16T07:31:21.951Z,100179.53
2022-11-16T07:33:23.593Z,100182.38
2022-11-16T07:35:25.359Z,100186.81
2022-11-16T07:37:26.933Z,100187.16
2022-11-16T07:39:28.270Z,100191.59
2022-11-16T07:41:31.643Z,100192.69
2022-11-16T07:43:34.300Z,100194.31
2022-11-16T07:45:35.813Z,100179.22
2022-11-16T07:47:37.206Z,100185.09
2022-11-16T07:49:38.834Z,100191.09
2022-11-16T07:51:40.572Z,100180.78
2022-11-16T07:53:43.106Z,100183.53
2022-11-16T07:55:50.809Z,100180.78
2022-11-16T07:57:53.810Z,100190.38
2022-11-16T07:59:56.406Z,100190.09
2022-11-16T08:01:58.135Z,100190.53
2022-11-16T08:04:00.161Z,100187.19
2022-11-16T08:06:04.121Z,100177.59
2022-11-16T08:08:06.008Z,100188.19
2022-11-16T08:10:08.635Z,100191.63
2022-11-16T08:12:10.210Z,100184.31
2022-11-16T08:14:13.064Z,100186.03
2022-11-16T08:16:16.085Z,100190.09
2022-11-16T08:18:17.671Z,100181.88
2022-11-16T08:20:19.103Z,100177.38
2022-11-16T08:22:20.654Z,100176.94
2022-11-16T08:24:22.710Z,100170.22
2022-11-16T08:26:24.353Z,100184.22
2022-11-16T08:28:26.329Z,100177.38
2022-11-16T08:30:29.236Z,100177.22
2022-11-16T08:32:31.068Z,100173.59
2022-11-16T08:34:33.478Z,100171.25
2022-11-16T08:36:34.988Z,100159.78
2022-11-16T08:38:36.545Z,100160.66
2022-11-16T08:40:37.913Z,100164.22
2022-11-16T08:42:43.449Z,100158.78
2022-11-16T08:44:45.660Z,100161.72
2022-11-16T08:46:48.576Z,100161.50
2022-11-16T08:48:54.502Z,100156.28
2022-11-16T08:51:16.943Z,100149.56
2022-11-16T08:53:19.874Z,100162.19
2022-11-16T08:55:21.221Z,100150.56
2022-11-16T08:57:22.794Z,100143.31
2022-11-16T08:59:24.138Z,100147.97
2022-11-16T09:01:27.865Z,100141.63
2022-11-16T09:03:31.001Z,100141.47
2022-11-16T09:05:32.563Z,100130.97
2022-11-16T09:07:34.334Z,100136.31
2022-11-16T09:09:36.201Z,100136.19
2022-11-16T09:11:38.065Z,100125.31
2022-11-16T09:13:39.946Z,100127.72
2022-11-16T09:15:41.537Z,100134.88
2022-11-16T09:17:42.937Z,100130.59
2022-11-16T09:19:45.900Z,100127.88
2022-11-16T09:21:47.528Z,100131.88
2022-11-16T09:23:49.293Z,100127.09
2022-11-16T09:25:50.933Z,100110.88
2022-11-16T09:27:54.309Z,100126.31
2022-11-16T09:29:55.880Z,100127.59
2022-11-16T09:31:57.234Z,100120.88
2022-11-16T09:33:59.094Z,100124.94
2022-11-16T09:36:03.456Z,100119.53
2022-11-16T09:38:05.080Z,100122.03
2022-11-16T09:40:07.199Z,100122.28
2022-11-16T09:42:27.865Z,100119.03
2022-11-16T09:44:50.696Z,100123.75
2022-11-16T09:46:56.828Z,100118.75
2022-11-16T09:49:02.345Z,100120.31
2022-11-16T09:51:08.742Z,100116.75
2022-11-16T09:53:32.304Z,100121.88
2022-11-16T09:55:41.242Z,100122.66
2022-11-16T09:57:44.014Z,100116.59
2022-11-16T09:59:48.419Z,100110.38
2022-11-16T10:01:54.546Z,100117.00
2022-11-16T10:04:01.279Z,100122.75
2022-11-16T10:06:06.054Z,100108.03
2022-11-16T10:08:16.171Z,100114.72
2022-11-16T10:10:25.361Z,100106.88
2022-11-16T10:12:31.815Z,100103.78
2022-11-16T10:15:00.914Z,100102.72
2022-11-16T10:17:06.874Z,100095.16
2022-11-16T10:19:17.176Z,100102.44
2022-11-16T10:21:34.779Z,100102.66
2022-11-16T10:23:49.173Z,100095.72
2022-11-16T10:25:54.249Z,100094.00
2022-11-16T10:28:29.128Z,100104.31
2022-11-16T10:30:36.537Z,100092.94
2022-11-16T10:32:45.834Z,100100.09
2022-11-16T10:34:51.399Z,100074.94
2022-11-16T10:37:00.641Z,100084.44
2022-11-16T10:39:02.194Z,100094.84
2022-11-16T10:41:13.129Z,100086.44
2022-11-16T10:43:16.148Z,100084.56
2022-11-16T10:45:22.400Z,100089.41
2022-11-16T10:47:34.039Z,100098.28
2022-11-16T10:49:41.739Z,100101.72
2022-11-16T10:51:43.634Z,100085.63
2022-11-16T10:53:46.820Z,100089.41
2022-11-16T10:56:09.661Z,100101.00
2022-11-16T10:58:11.195Z,100103.28
2022-11-16T11:00:32.048Z,100090.78
2022-11-16T11:02:35.413Z,100095.78
2022-11-16T11:04:37.028Z,100089.50
2022-11-16T11:06:38.908Z,100095.84
2022-11-16T11:08:40.579Z,100089.97
2022-11-16T11:10:43.604Z,100074.00
2022-11-16T11:13:01.820Z,100082.13
2022-11-16T11:15:11.914Z,100080.91
2022-11-16T11:17:17.856Z,100052.84
2022-11-16T11:19:25.282Z,100078.31
2022-11-16T11:21:27.654Z,100082.56
2022-11-16T11:23:29.287Z,100068.56
2022-11-16T11:25:34.119Z,100071.63
2022-11-16T11:27:37.136Z,100074.44
2022-11-16T11:29:42.736Z,100067.84
2022-11-16T11:31:46.649Z,100068.13
2022-11-16T11:33:50.524Z,100075.81
2022-11-16T11:36:04.935Z,100065.31
2022-11-16T11:38:08.375Z,100076.41
2022-11-16T11:40:22.573Z,100076.59
2022-11-16T11:42:24.478Z,100082.56
2022-11-16T11:44:35.811Z,100072.31
2022-11-16T11:47:28.738Z,100070.81
2022-11-16T11:49:10.341Z,100083.13
2022-11-16T11:51:17.156Z,100080.97
2022-11-16T11:53:36.997Z,100081.66
2022-11-16T11:55:39.259Z,100089.44
2022-11-16T11:57:43.782Z,100088.56
2022-11-16T11:59:47.758Z,100086.84
2022-11-16T12:02:02.414Z,100083.13
2022-11-16T12:04:36.879Z,100080.13
2022-11-16T12:06:49.904Z,100082.91
2022-11-16T12:09:04.549Z,100082.56
2022-11-16T12:11:14.968Z,100088.72
2022-11-16T12:13:38.141Z,100078.47
2022-11-16T12:15:59.062Z,100075.50
2022-11-16T12:18:15.943Z,100079.56
2022-11-16T12:20:29.799Z,100079.41
2022-11-16T12:22:50.008Z,100082.13
2022-11-16T12:25:05.743Z,100078.91
2022-11-16T12:27:18.203Z,100080.03
2022-11-16T12:29:25.473Z,100068.41
2022-11-16T12:31:50.260Z,100075.03
2022-11-16T12:34:02.147Z,100075.97
2022-11-16T12:36:10.390Z,100086.25
2022-11-16T12:38:40.438Z,100072.41
2022-11-16T12:40:55.790Z,100066.94
2022-11-16T12:43:03.090Z,100085.81
2022-11-16T12:45:23.078Z,100087.75
2022-11-16T12:47:34.692Z,100076.69
2022-11-16T12:49:54.196Z,100085.81
2022-11-16T12:52:11.134Z,100078.78
2022-11-16T12:54:33.354Z,100080.97
2022-11-16T12:56:49.438Z,100085.97
2022-11-16T12:59:17.516Z,100072.66
2022-11-16T13:01:24.706Z,100074.66
2022-11-16T13:03:33.546Z,100075.66
2022-11-16T13:05:47.816Z,100076.59
2022-11-16T13:07:53.528Z,100074.41
2022-11-16T13:10:02.862Z,100077.69
2022-11-16T13:12:10.817Z,100068.19
2022-11-16T13:14:15.326Z,100064.16
2022-11-16T13:16:18.631Z,100064.00
2022-11-16T13:18:22.803Z,100056.66
2022-11-16T13:20:40.037Z,100058.38
2022-11-16T13:22:52.004Z,100048.09
2022-11-16T13:24:58.429Z,100053.09
2022-11-16T13:27:18.089Z,100051.38
2022-11-16T13:29:29.531Z,100040.88
2022-11-16T13:31:35.424Z,100044.06
2022-11-16T13:33:46.243Z,100057.94
2022-11-16T13:35:53.429Z,100050.75
2022-11-16T13:37:54.994Z,100061.19
2022-11-16T13:40:09.692Z,100064.47
2022-11-16T13:42:12.963Z,100046.41
2022-11-16T13:44:28.112Z,100057.94
2022-11-16T13:46:55.757Z,100057.94
2022-11-16T13:48:58.502Z,100052.19
2022-11-16T13:51:03.907Z,100058.41
2022-11-16T13:55:31.800Z,100053.50
2022-11-16T13:57:34.694Z,100060.97
2022-11-16T13:59:36.715Z,100060.44
2022-11-16T14:01:54.665Z,100058.88
2022-11-16T14:04:39.510Z,100057.56
2022-11-16T14:06:58.343Z,100060.13
2022-11-16T14:09:00.316Z,100060.81
2022-11-16T14:11:01.984Z,100049.00
2022-11-16T14:13:04.491Z,100054.28
2022-11-16T14:15:14.657Z,100040.09
2022-11-16T14:17:50.233Z,100044.84
2022-11-16T14:19:55.370Z,100038.09
2022-11-16T14:22:06.723Z,100048.44
2022-11-16T14:24:21.952Z,100034.28
2022-11-16T14:26:32.183Z,100040.66
2022-11-16T14:29:07.159Z,100043.44
2022-11-16T14:31:17.811Z,100043.22
2022-11-16T14:33:28.696Z,100047.50
2022-11-16T14:35:33.778Z,100049.28
2022-11-16T14:37:40.241Z,100024.06
2022-11-16T14:39:43.435Z,100045.72
2022-11-16T14:41:46.217Z,100040.09
2022-11-16T14:43:50.310Z,100044.63
2022-11-16T14:45:56.104Z,100051.72
2022-11-16T14:48:02.586Z,100042.44
2022-11-16T14:50:04.571Z,100039.00
2022-11-16T14:52:06.590Z,100040.50
2022-11-16T14:54:15.431Z,100040.56
2022-11-16T14:56:18.821Z,100043.28
2022-11-16T14:58:23.182Z,100039.31
2022-11-16T15:00:24.957Z,100042.59
2022-11-16T15:02:27.314Z,100038.00
2022-11-16T15:04:30.693Z,100036.44
2022-11-16T15:06:38.860Z,100031.47
2022-11-16T15:08:47.328Z,100036.59
2022-11-16T15:10:52.560Z,100027.47
2022-11-16T15:12:56.393Z,100038.13
2022-11-16T15:15:03.326Z,100028.34
2022-11-16T15:17:07.599Z,100026.78
2022-11-16T15:19:12.587Z,100003.69
2022-11-16T15:21:21.317Z,100030.97
2022-11-16T15:23:30.854Z,100033.47
2022-11-16T15:25:35.306Z,100027.03
2022-11-16T15:27:41.345Z,100038.38
2022-11-16T15:29:42.983Z,100040.16
2022-11-16T15:31:45.164Z,100031.38
2022-11-16T15:33:46.979Z,100034.63
2022-11-16T15:35:48.528Z,100032.06
2022-11-16T15:37:59.887Z,100033.19
2022-11-16T15:40:01.777Z,100036.72
2022-11-16T15:42:04.454Z,100023.84
2022-11-16T15:44:14.690Z,100035.34
2022-11-16T15:46:17.774Z,100029.38
2022-11-16T15:48:22.287Z,100032.09
2022-11-16T15:50:23.960Z,100034.81
2022-11-16T15:52:41.087Z,100027.00
2022-11-16T15:54:42.675Z,100026.78
2022-11-16T15:56:44.076Z,100023.78
2022-11-16T15:58:49.318Z,100029.22
2022-11-16T16:00:53.561Z,100028.34
2022-11-16T16:03:01.245Z,100018.22
2022-11-16T16:05:03.191Z,100019.53
2022-11-16T16:07:05.262Z,100021.38
2022-11-16T16:09:07.013Z,100012.69
2022-11-16T16:11:10.633Z,100020.25
2022-11-16T16:13:25.606Z,100014.94
2022-11-16T16:15:29.307Z,100024.97
2022-11-16T16:17:32.306Z,100019.38
2022-11-16T16:19:36.982Z,100014.53
2022-11-16T16:21:43.666Z,100019.69
2022-11-16T16:23:46.590Z,100029.31
2022-11-16T16:25:50.662Z,100015.25
2022-11-16T16:27:52.448Z,100017.03
2022-11-16T16:29:55.552Z,100018.75
2022-11-16T16:31:57.255Z,100015.38
2022-11-16T16:34:10.365Z,100022.63
2022-11-16T16:36:12.068Z,100028.41
2022-11-16T16:38:13.714Z,100031.25
2022-11-16T16:40:15.457Z,100025.03
2022-11-16T16:42:17.634Z,100028.41
2022-11-16T16:44:19.191Z,100029.41
2022-11-16T16:46:20.703Z,100031.19
2022-11-16T16:48:22.301Z,100031.81
2022-11-16T16:50:25.030Z,100037.56
2022-11-16T16:52:26.609Z,100023.41
2022-11-16T16:54:28.087Z,100026.47
2022-11-16T16:56:29.633Z,100028.41
2022-11-16T16:58:30.989Z,100027.31
2022-11-16T17:00:32.713Z,100022.16
2022-11-16T17:02:36.488Z,100025.13
2022-11-16T17:04:39.307Z,100015.84
2022-11-16T17:06:46.316Z,100030.69
2022-11-16T17:08:48.227Z,100032.25
2022-11-16T17:10:49.626Z,100034.06
2022-11-16T17:12:53.643Z,100024.78
2022-11-16T17:14:55.231Z,100033.81
2022-11-16T17:16:56.570Z,100029.63
2022-11-16T17:18:58.547Z,100016.09
2022-11-16T17:21:03.864Z,100033.53
2022-11-16T17:23:06.736Z,100025.75
2022-11-16T17:25:09.873Z,100016.88
2022-11-16T17:27:11.893Z,100021.09
2022-11-16T17:29:13.748Z,100030.88
2022-11-16T17:31:15.296Z,100021.88
2022-11-16T17:33:16.670Z,100025.94
2022-11-16T17:35:18.284Z,100033.78
2022-11-16T17:37:19.645Z,100036.38
2022-11-16T17:39:22.596Z,100033.81
2022-11-16T17:41:24.306Z,100033.38
2022-11-16T17:43:25.883Z,100036.81
2022-11-16T17:45:27.273Z,100045.69
2022-11-16T17:47:30.776Z,100039.69
2022-11-16T17:49:32.541Z,100046.09
2022-11-16T17:51:34.199Z,100039.63
2022-11-16T17:53:36.605Z,100038.19
2022-11-16T17:55:39.626Z,100046.59
2022-11-16T17:57:41.233Z,100040.41
2022-11-16T17:59:42.882Z,100044.03
2022-11-16T18:01:44.479Z,100035.50
2022-11-16T18:03:46.105Z,100048.75
2022-11-16T18:05:47.488Z,100049.38
2022-11-16T18:07:49.045Z,100048.75
2022-11-16T18:09:50.603Z,100047.41
2022-11-16T18:11:53.650Z,100051.72
2022-11-16T18:13:56.753Z,100038.22
2022-11-16T18:16:03.085Z,100029.72
2022-11-16T18:18:05.600Z,100049.66
2022-11-16T18:20:08.198Z,100026.75
2022-11-16T18:22:09.779Z,100045.19
2022-11-16T18:24:11.517Z,100054.13
2022-11-16T18:26:15.069Z,100038.41
2022-11-16T18:28:18.629Z,100037.97
2022-11-16T18:30:20.554Z,100044.13
2022-11-16T18:32:24.940Z,100032.75
2022-11-16T18:34:26.492Z,100035.69
2022-11-16T18:36:27.864Z,100028.25
2022-11-16T18:38:29.565Z,100040.97
2022-11-16T18:40:31.195Z,100044.25
2022-11-16T18:42:32.546Z,100042.81
2022-11-16T18:44:35.462Z,100028.56
2022-11-16T18:46:37.044Z,100029.50
2022-11-16T18:48:47.621Z,100031.53
2022-11-16T18:50:49.253Z,100025.59
2022-11-16T18:52:50.702Z,100020.47
2022-11-16T18:54:52.229Z,100031.81
2022-11-16T18:56:54.944Z,100027.16
2022-11-16T18:58:56.662Z,100033.25
2022-11-16T19:01:02.604Z,100035.72
2022-11-16T19:03:09.904Z,100036.75
2022-11-16T19:05:12.830Z,100025.38
2022-11-16T19:07:14.501Z,100015.66
2022-11-16T19:09:16.090Z,100037.16
2022-11-16T19:11:17.700Z,100029.38
2022-11-16T19:13:19.211Z,100029.22
2022-11-16T19:15:20.795Z,100022.06
2022-11-16T19:17:23.989Z,100044.31
2022-11-16T19:19:25.555Z,100031.97
2022-11-16T19:21:27.309Z,100030.25
2022-11-16T19:23:28.887Z,100030.25
2022-11-16T19:25:30.288Z,100041.13
2022-11-16T19:27:33.476Z,100036.41
2022-11-16T19:29:35.069Z,100013.81
2022-11-16T19:31:36.451Z,100044.13
2022-11-16T19:33:40.326Z,100033.25
2022-11-16T19:35:41.896Z,100045.38
2022-11-16T19:37:43.208Z,100045.75
2022-11-16T19:39:44.864Z,100034.16
2022-11-16T19:41:46.453Z,100031.66
2022-11-16T19:43:48.251Z,100032.81
2022-11-16T19:45:49.793Z,100049.41
2022-11-16T19:47:51.206Z,100031.97
2022-11-16T19:49:54.134Z,100031.19
2022-11-16T19:51:55.775Z,100041.28
2022-11-16T19:53:57.990Z,100041.84
2022-11-16T19:55:59.657Z,100032.91
2022-11-16T19:58:01.187Z,100040.69
2022-11-16T20:00:03.116Z,100050.97
2022-11-16T20:02:04.970Z,100045.53
2022-11-16T20:04:06.543Z,100041.16
2022-11-16T20:06:10.258Z,100033.59
2022-11-16T20:08:11.791Z,100028.97
2022-11-16T20:10:13.318Z,100053.13
2022-11-16T20:12:15.100Z,100049.00
2022-11-16T20:14:16.687Z,100042.84
2022-11-16T20:16:18.673Z,100058.72
2022-11-16T20:18:20.263Z,100050.56
2022-11-16T20:20:21.605Z,100047.84
2022-11-16T20:22:24.661Z,100056.41
2022-11-16T20:24:26.348Z,100051.59
2022-11-16T20:26:33.226Z,100058.75
2022-11-16T20:28:35.760Z,100053.06
2022-11-16T20:30:37.372Z,100055.56
2022-11-16T20:32:38.725Z,100058.25
2022-11-16T20:34:40.260Z,100058.41
2022-11-16T20:36:43.491Z,100068.22
2022-11-16T20:38:46.630Z,100055.84
2022-11-16T20:40:48.183Z,100067.41
2022-11-16T20:42:49.577Z,100060.28
2022-11-16T20:44:51.115Z,100060.75
2022-11-16T20:46:52.533Z,100069.25
2022-11-16T20:48:55.345Z,100054.84
2022-11-16T20:50:56.897Z,100056.47
2022-11-16T20:52:58.241Z,100060.28
2022-11-16T20:55:01.191Z,100058.84
2022-11-16T20:57:02.973Z,100054.28
2022-11-16T20:59:04.592Z,100038.91
2022-11-16T21:01:07.007Z,100057.47
2022-11-16T21:03:09.046Z,100063.84
2022-11-16T21:05:10.611Z,100039.91
2022-11-16T21:07:12.012Z,100054.97
2022-11-16T21:09:14.568Z,100068.28
2022-11-16T21:11:19.460Z,100069.00
2022-11-16T21:13:21.432Z,100040.72
2022-11-16T21:15:22.979Z,100068.28
2022-11-16T21:17:24.522Z,100058.50
2022-11-16T21:19:25.918Z,100060.13
2022-11-16T21:21:27.635Z,100056.84
2022-11-16T21:23:31.113Z,100063.78
2022-11-16T21:25:32.681Z,100068.28
2022-11-16T21:27:35.451Z,100071.66
2022-11-16T21:29:37.007Z,100063.63
2022-11-16T21:31:38.409Z,100056.44
2022-11-16T21:33:43.412Z,100070.16
2022-11-16T21:35:45.156Z,100070.44
2022-11-16T21:37:46.801Z,100072.06
2022-11-16T21:39:48.351Z,100073.16
2022-11-16T21:41:49.832Z,100068.13
2022-11-16T21:43:53.262Z,100069.50
2022-11-16T21:46:01.223Z,100069.78
2022-11-16T21:48:02.623Z,100070.06
2022-11-16T21:52:26.445Z,100074.41
2022-11-16T21:54:27.955Z,100073.63
2022-11-16T21:56:29.491Z,100075.06
2022-11-16T21:58:31.053Z,100067.84
2022-11-16T22:00:33.829Z,100066.56
2022-11-16T22:02:35.552Z,100071.47
2022-11-16T22:04:37.100Z,100062.91
2022-11-16T22:06:38.604Z,100064.34
2022-11-16T22:08:40.263Z,100059.34
2022-11-16T22:10:41.586Z,100059.47
2022-11-16T22:12:43.114Z,100065.56
2022-11-16T22:14:44.690Z,100058.19
2022-11-16T22:16:47.382Z,100059.50
2022-11-16T22:18:49.027Z,100071.00
2022-11-16T22:20:50.625Z,100075.34
2022-11-16T22:22:51.940Z,100075.44
2022-11-16T22:24:53.752Z,100080.78
2022-11-16T22:26:55.454Z,100061.25
2022-11-16T22:28:57.823Z,100075.22
2022-11-16T22:31:00.975Z,100074.31
2022-11-16T22:33:04.155Z,100066.00
2022-11-16T22:35:06.094Z,100070.09
2022-11-16T22:37:07.646Z,100074.78
2022-11-16T22:39:09.254Z,100057.63
2022-11-16T22:41:10.646Z,100059.47
2022-11-16T22:43:12.200Z,100059.78
2022-11-16T22:45:13.826Z,100063.50
2022-11-16T22:47:15.290Z,100063.34
2022-11-16T22:49:18.388Z,100050.94
2022-11-16T22:51:22.057Z,100047.66
2022-11-16T22:53:23.631Z,100055.44
2022-11-16T22:55:25.413Z,100047.66
2022-11-16T22:57:27.003Z,100049.97
2022-11-16T22:59:28.385Z,100057.81
2022-11-16T23:01:29.981Z,100056.34
2022-11-16T23:03:31.545Z,100052.94
2022-11-16T23:05:34.612Z,100052.19
2022-11-16T23:07:36.218Z,100053.41
2022-11-16T23:09:37.661Z,100050.38
2022-11-16T23:11:39.168Z,100051.69
2022-11-16T23:13:40.702Z,100050.22
2022-11-16T23:15:42.337Z,100059.19
2022-11-16T23:17:45.121Z,100042.75
2022-11-16T23:19:46.848Z,100033.50
2022-11-16T23:21:49.835Z,100038.59
2022-11-16T23:23:51.380Z,100040.91
2022-11-16T23:25:52.943Z,100039.50
2022-11-16T23:27:57.589Z,100039.50
2022-11-16T23:30:00.983Z,100043.06
2022-11-16T23:32:02.537Z,100033.19
2022-11-16T23:34:04.643Z,100036.34
2022-11-16T23:36:06.774Z,100029.34
2022-11-16T23:38:09.729Z,100032.16
2022-11-16T23:40:11.875Z,100035.78
2022-11-16T23:42:13.413Z,100019.22
2022-11-16T23:44:15.081Z,100023.75
2022-11-16T23:46:16.524Z,100028.66
2022-11-16T23:48:18.778Z,100022.94